Latest Weather Observations for Hopetoun North

IDW60801

Issued at 4:34 am WST Sunday 2 October 2016 (issued every 30 minutes, with the page automatically refreshed every 10 minutes)

About weather observations | Map of weather stations | Latest weather observations for WA | Other Formats
Station Details ID: 009961 Name: HOPETOUN NORTH Lat: -33.93 Lon: 120.13 Height: 26.0 m
Data from the previous 72 hours. | See also: Recent months at Hopetoun North
Date/Time
WST
Temp
°C
App
Temp
°C
Dew
Point
°C
Rel
Hum
%
Delta-T
°C
Wind Press
QNH
hPa
Press
MSL
hPa
Rain since
9am
mm
Dir  Spd
km/h
Gust
km/h
Spd
kts
Gust
kts
01/08:00am 16.1 9.1 10.0 67 3.2 NNW 37 57 20 31 993.6 993.5 0.0
01/07:35am 15.1 9.9 10.3 73 2.5 NNW 28 48 15 26 994.3 994.3 0.0
01/07:30am 14.8 10.0 10.2 74 2.4 NNW 26 43 14 23 994.6 994.6 0.0
01/07:00am 13.6 9.2 10.4 81 1.7 NNW 24 35 13 19 995.3 995.3 0.0
01/06:30am 12.3 8.5 9.9 85 1.2 NNW 20 32 11 17 995.7 995.7 0.0
01/06:00am 12.1 8.3 9.7 85 1.2 NNW 20 35 11 19 996.2 996.2 0.0
01/05:30am 11.8 7.6 9.7 87 1.1 NNW 22 37 12 20 996.5 996.5 0.0
01/05:00am 11.4 7.8 9.8 90 0.8 N 19 26 10 14 997.0 997.0 0.0
01/04:30am 11.3 7.4 9.6 89 0.9 NNW 20 30 11 16 997.6 997.6 0.0
01/04:00am 11.4 7.7 9.5 88 1.0 NNW 19 32 10 17 998.0 998.0 0.0
01/03:30am 11.6 7.9 9.5 87 1.1 NNW 19 32 10 17 998.2 998.2 0.0
01/03:00am 11.7 7.8 9.4 86 1.2 NNW 20 30 11 16 998.6 998.6 0.0
01/02:30am 12.0 8.7 9.6 85 1.2 NW 17 28 9 15 999.0 999.0 0.0
01/02:00am 12.5 8.2 9.5 82 1.5 NW 22 37 12 20 999.6 999.6 0.0
01/01:30am 12.3 9.1 10.0 86 1.2 NNW 17 28 9 15 999.9 999.9 0.0
01/01:00am 12.5 9.7 9.9 84 1.3 NNW 15 24 8 13 1000.5 1000.5 0.0
01/12:30am 12.8 10.8 10.0 83 1.4 WNW 11 20 6 11 1000.9 1000.9 0.0
01/12:00am 12.9 10.3 9.5 80 1.7 WNW 13 20 7 11 1001.1 1001.1 0.0
 
Date/Time
WST
Temp
°C
App
Temp
°C
Dew
Point
°C
Rel
Hum
%
Delta-T
°C
Wind Press
QNH
hPa
Press
MSL
hPa
Rain since
9am
mm
Dir  Spd
km/h
Gust
km/h
Spd
kts
Gust
kts
30/11:30pm 13.3 10.4 9.7 79 1.8 NW 15 20 8 11 1001.2 1001.2 0.0
30/11:00pm 13.7 10.5 9.9 78 2.0 NW 17 26 9 14 1001.7 1001.7 0.0
30/10:30pm 13.6 11.0 9.3 75 2.2 NW 13 19 7 10 1002.1 1002.1 0.0
30/10:00pm 14.3 11.3 9.3 72 2.6 WNW 15 20 8 11 1002.3 1002.3 0.0
30/09:30pm 15.2 11.8 9.3 68 3.0 WNW 17 26 9 14 1002.5 1002.5 0.0
30/09:00pm 15.3 12.3 9.4 68 3.1 W 15 22 8 12 1002.7 1002.7 0.0
30/08:30pm 15.3 12.2 9.0 66 3.2 WNW 15 26 8 14 1002.2 1002.2 0.0
30/08:00pm 16.0 13.7 9.0 63 3.6 WNW 11 17 6 9 1002.0 1002.0 0.0
30/07:30pm 16.4 13.7 8.9 61 3.9 WNW 13 24 7 13 1002.0 1002.0 0.0
30/07:00pm 16.5 13.4 9.0 61 3.9 WNW 15 22 8 12 1001.6 1001.6 0.0
30/06:30pm 17.3 13.1 8.4 56 4.6 WNW 20 30 11 16 1001.1 1001.1 0.0
30/06:00pm 18.0 13.1 8.3 53 5.0 W 24 39 13 21 1000.8 1000.8 0.0
30/05:30pm 18.5 13.6 8.5 52 5.2 WNW 24 39 13 21 1000.6 1000.6 0.0
30/05:00pm 19.0 13.5 9.2 53 5.2 WNW 28 48 15 26 1000.5 1000.5 0.0
30/04:59pm 19.0 13.6 9.5 54 5.0 WNW 28 46 15 25 1000.5 1000.5 0.0
30/04:30pm 19.1 14.7 10.4 57 4.7 NW 24 39 13 21 1000.3 1000.3 0.0
30/04:00pm 19.3 14.0 10.0 55 5.0 NW 28 48 15 26 1000.3 1000.3 0.0
30/03:57pm 19.4 14.2 10.1 55 5.0 WNW 28 48 15 26 1000.3 1000.3 0.0
30/03:30pm 19.3 14.0 10.0 55 5.0 WNW 28 41 15 22 1000.3 1000.3 0.0
30/03:16pm 19.4 13.9 9.3 52 5.3 WNW 28 46 15 25 1000.2 1000.2 0.0
30/03:00pm 19.7 15.1 9.6 52 5.4 W 24 39 13 21 1000.2 1000.2 0.0
30/02:30pm 19.8 15.1 9.1 50 5.6 W 24 35 13 19 1000.3 1000.3 0.0
30/02:00pm 20.0 14.3 8.4 47 6.1 WNW 28 44 15 24 1000.5 1000.5 0.0
30/01:30pm 20.8 15.0 8.1 44 6.6 NW 28 44 15 24 1000.4 1000.4 0.0
30/01:00pm 21.3 15.9 7.9 42 7.0 WNW 26 39 14 21 1000.8 1000.8 0.0
30/12:30pm 21.9 17.1 8.8 43 7.0 NW 24 37 13 20 1001.2 1001.2 0.0
30/12:00pm 20.6 15.6 7.9 44 6.6 WNW 24 35 13 19 1001.8 1001.8 0.0
30/11:30am 20.4 15.7 7.7 44 6.5 NW 22 37 12 20 1002.5 1002.5 0.0
30/11:00am 19.9 15.7 8.3 47 6.1 NW 20 35 11 19 1003.1 1003.1 0.0
30/10:30am 17.8 13.1 7.8 52 5.1 NW 22 33 12 18 1003.4 1003.4 0.0
30/10:00am 17.6 13.1 8.5 55 4.7 WNW 22 35 12 19 1004.2 1004.2 0.0
30/09:30am 17.3 13.8 8.7 57 4.4 NW 17 28 9 15 1004.4 1004.4 0.0
30/09:00am 14.3 12.0 8.9 70 2.8 NW 11 17 6 9 1004.8 1004.8 0.0
30/08:30am 13.0 10.6 8.5 74 2.2 NW 11 19 6 10 1005.0 1005.0 0.0
30/08:00am 11.1 7.4 7.8 80 1.6 WNW 17 24 9 13 1005.4 1005.4 0.0
30/07:30am 11.1 7.6 7.4 78 1.8 WNW 15 22 8 12 1006.0 1006.0 0.0
30/07:00am 10.0 7.0 7.9 87 1.0 WNW 13 17 7 9 1006.2 1006.2 0.0
30/06:30am 7.8 5.6 6.3 90 0.7 NW 7 11 4 6 1006.0 1006.0 0.0
30/06:00am 6.7 4.0 5.5 92 0.5 NW 9 17 5 9 1006.2 1006.2 0.0
30/05:30am 5.2 1.6 4.8 97 0.2 NE 13 17 7 9 1005.4 1005.4 0.0
30/05:00am 5.5 1.8 4.6 94 0.4 NE 13 15 7 8 1006.0 1006.0 0.0
30/04:30am 6.8 4.1 5.4 91 0.6 NNE 9 15 5 8 1006.3 1006.3 0.0
30/04:00am 6.4 2.9 5.5 94 0.4 NNE 13 17 7 9 1006.6 1006.6 0.0
30/03:30am 6.5 3.2 6.4 99 0.0 N 13 19 7 10 1007.4 1007.4 0.0
30/03:00am 5.4 2.6 5.3 99 0.0 ENE 9 13 5 7 1007.4 1007.4 0.0
30/02:30am 5.3 1.7 5.2 99 0.0 NE 13 17 7 9 1007.7 1007.7 0.0
30/02:00am 5.3 1.7 5.2 99 0.0 NE 13 15 7 8 1008.4 1008.4 0.0
30/01:30am 5.3 1.7 5.2 99 0.0 NE 13 15 7 8 1009.2 1009.2 0.0
30/01:00am 5.3 2.1 5.2 99 0.0 NE 11 15 6 8 1010.0 1010.0 0.0
30/12:30am 5.5 2.4 5.4 99 0.0 NE 11 13 6 7 1010.4 1010.4 0.0
30/12:00am 6.0 3.0 5.9 99 0.0 NE 11 13 6 7 1011.0 1011.0 0.0
 
Date/Time
WST
Temp
°C
App
Temp
°C
Dew
Point
°C
Rel
Hum
%
Delta-T
°C
Wind Press
QNH
hPa
Press
MSL
hPa
Rain since
9am
mm
Dir  Spd
km/h
Gust
km/h
Spd
kts
Gust
kts
29/11:30pm 6.8 4.3 6.7 99 0.0 NNE 9 11 5 6 1011.5 1011.5 0.0
29/11:00pm 7.5 4.8 7.2 98 0.1 NE 11 15 6 8 1012.0 1012.0 0.0
29/10:30pm 7.5 5.1 7.2 98 0.1 NE 9 15 5 8 1012.6 1012.6 0.0
29/10:00pm 7.3 5.4 6.9 97 0.2 NNE 6 9 3 5 1013.1 1013.1 0.0
29/09:30pm 8.0 5.3 7.2 95 0.4 NE 11 13 6 7 1013.3 1013.3 0.0
29/09:00pm 8.1 5.0 7.2 94 0.4 ENE 13 13 7 7 1013.6 1013.6 0.0
29/08:30pm 8.3 5.9 7.2 93 0.5 NE 9 13 5 7 1013.9 1013.9 0.0
29/08:00pm 8.5 6.7 7.1 91 0.7 NNE 6 7 3 4 1014.4 1014.4 0.0
29/07:30pm 9.2 7.8 7.3 88 0.9 NE 4 7 2 4 1014.4 1014.4 0.0
29/07:00pm 9.8 7.4 7.2 84 1.2 NE 9 11 5 6 1014.1 1014.1 0.0
29/06:30pm 10.8 8.8 7.1 78 1.8 ENE 7 11 4 6 1014.3 1014.3 0.0
29/06:00pm 11.7 7.8 7.0 73 2.2 E 17 24 9 13 1014.3 1014.3 0.0
29/05:30pm 12.5 8.2 7.2 70 2.6 E 19 26 10 14 1014.4 1014.4 0.0
29/05:00pm 12.9 8.1 7.4 69 2.7 E 22 32 12 17 1014.8 1014.8 0.0
29/04:30pm 13.6 8.9 7.6 67 2.9 ESE 22 32 12 17 1015.1 1015.1 0.0
29/04:00pm 13.9 9.7 7.4 65 3.2 ESE 19 28 10 15 1015.9 1015.8 0.0
29/03:30pm 14.2 9.4 7.5 64 3.3 ESE 22 32 12 17 1016.3 1016.2 0.0
29/03:00pm 14.3 9.8 6.9 61 3.6 SE 20 32 11 17 1016.8 1016.7 0.0
29/02:30pm 14.9 10.6 7.2 60 3.8 SE 19 28 10 15 1017.5 1017.4 0.0
29/02:00pm 14.5 10.1 6.6 59 3.8 SE 19 24 10 13 1017.9 1017.8 0.0
29/01:30pm 14.6 10.2 6.4 58 4.0 ESE 19 26 10 14 1018.5 1018.4 0.0
29/01:00pm 14.6 10.2 6.7 59 3.8 SE 19 26 10 14 1019.0 1018.9 0.0
29/12:30pm 14.6 10.7 6.9 60 3.8 SSE 17 24 9 13 1019.6 1019.5 0.0
29/12:00pm 14.3 10.3 6.6 60 3.7 SSE 17 26 9 14 1020.3 1020.3 0.0
29/11:30am 14.3 11.6 7.4 63 3.4 S 11 19 6 10 1020.9 1020.9 0.0
29/11:00am 13.4 10.1 6.5 63 3.3 SSW 13 20 7 11 1021.4 1021.4 0.0
29/10:30am 13.4 11.3 5.8 60 3.6 SSW 6 9 3 5 1021.5 1021.5 0.0
29/10:00am 13.4 11.1 5.8 60 3.6 N 7 17 4 9 1021.5 1021.5 0.0
29/09:30am 12.9 10.7 6.3 64 3.1 ENE 7 17 4 9 1021.4 1021.4 0.0
29/09:00am 12.4 10.3 5.6 63 3.2 ENE 6 7 3 4 1021.9 1021.9 0.8
29/08:30am 12.2 9.8 5.4 63 3.2 N 7 11 4 6 1022.1 1022.1 0.8
29/08:00am 12.0 10.3 5.9 66 2.8 NNE 4 6 2 3 1021.7 1021.7 0.8
29/07:30am 11.5 10.5 5.4 66 2.8 CALM 0 4 0 2 1021.8 1021.8 0.8
29/07:00am 11.2 8.7 4.7 64 2.9 SE 7 11 4 6 1021.6 1021.6 0.8
29/06:30am 10.6 9.5 5.2 69 2.5 CALM 0 2 0 1 1021.5 1021.5 0.8
29/06:00am 10.2 7.8 5.2 71 2.3 S 7 15 4 8 1021.3 1021.3 0.8
29/05:30am 10.1 7.6 4.9 70 2.3 SSE 7 15 4 8 1021.1 1021.1 0.8
29/05:00am 10.0 7.9 4.0 66 2.6 S 4 9 2 5 1021.2 1021.2 0.8

Other Formats:

Comma delimited format used in spreadsheet applications
http://www.bom.gov.au/fwo/IDW60801/IDW60801.95635.axf

JavaScript Object Notation format (JSON) in row-major order
http://www.bom.gov.au/fwo/IDW60801/IDW60801.95635.json